createdAt,value
2023-05-08T00:01:01.738Z,18.00
2023-05-08T00:03:30.282Z,18.00
2023-05-08T00:05:57.232Z,18.00
2023-05-08T00:08:24.009Z,18.00
2023-05-08T00:10:50.974Z,17.90
2023-05-08T00:13:17.812Z,17.90
2023-05-08T00:15:44.641Z,17.90
2023-05-08T00:18:11.782Z,17.90
2023-05-08T00:20:38.591Z,17.90
2023-05-08T00:23:05.674Z,17.90
2023-05-08T00:25:32.620Z,17.90
2023-05-08T00:28:00.292Z,17.90
2023-05-08T00:30:27.405Z,17.90
2023-05-08T00:32:54.406Z,17.90
2023-05-08T00:35:22.015Z,17.90
2023-05-08T00:37:48.841Z,17.90
2023-05-08T00:40:16.166Z,17.90
2023-05-08T00:42:42.970Z,17.80
2023-05-08T00:45:10.088Z,17.80
2023-05-08T00:47:37.222Z,17.80
2023-05-08T00:50:05.422Z,17.80
2023-05-08T00:52:33.775Z,17.80
2023-05-08T00:55:02.646Z,17.80
2023-05-08T00:57:32.471Z,17.80
2023-05-08T01:00:01.863Z,17.80
2023-05-08T01:02:31.522Z,17.80
2023-05-08T01:04:58.554Z,17.80
2023-05-08T01:07:25.780Z,17.80
2023-05-08T01:09:52.572Z,17.80
2023-05-08T01:12:47.113Z,17.80
2023-05-08T01:15:13.836Z,17.80
2023-05-08T01:17:51.929Z,17.70
2023-05-08T01:20:53.874Z,17.70
2023-05-08T01:23:39.188Z,17.70
2023-05-08T01:26:23.987Z,17.70
2023-05-08T01:29:25.970Z,17.70
2023-05-08T01:32:13.734Z,17.70
2023-05-08T01:34:50.465Z,17.70
2023-05-08T01:37:26.190Z,17.70
2023-05-08T01:40:21.277Z,17.70
2023-05-08T01:43:31.433Z,17.70
2023-05-08T01:46:02.921Z,17.70
2023-05-08T01:48:50.636Z,17.70
2023-05-08T01:51:24.319Z,17.60
2023-05-08T01:54:00.814Z,17.60
2023-05-08T01:56:30.055Z,17.70
2023-05-08T01:58:59.977Z,17.70
2023-05-08T02:01:29.394Z,17.60
2023-05-08T02:03:57.934Z,17.60
2023-05-08T02:06:27.077Z,17.60
2023-05-08T02:08:54.842Z,17.60
2023-05-08T02:11:24.354Z,17.60
2023-05-08T02:13:51.606Z,17.60
2023-05-08T02:16:19.291Z,17.60
2023-05-08T02:18:51.338Z,17.60
2023-05-08T02:21:19.664Z,17.60
2023-05-08T02:23:47.994Z,17.60
2023-05-08T02:26:16.413Z,17.60
2023-05-08T02:28:43.883Z,17.60
2023-05-08T02:31:12.146Z,17.60
2023-05-08T02:33:41.860Z,17.60
2023-05-08T02:36:10.810Z,17.60
2023-05-08T02:38:39.798Z,17.60
2023-05-08T02:41:07.943Z,17.60
2023-05-08T02:43:35.583Z,17.60
2023-05-08T02:46:23.902Z,17.60
2023-05-08T02:48:53.708Z,17.60
2023-05-08T02:51:21.184Z,17.60
2023-05-08T02:54:20.097Z,17.50
2023-05-08T02:56:57.051Z,17.60
2023-05-08T02:59:31.353Z,17.50
2023-05-08T03:02:14.281Z,17.50
2023-05-08T03:04:49.771Z,17.50
2023-05-08T03:07:17.143Z,17.50
2023-05-08T03:09:50.574Z,17.50
2023-05-08T03:12:24.768Z,17.50
2023-05-08T03:15:06.566Z,17.50
2023-05-08T03:17:35.458Z,17.50
2023-05-08T03:20:08.132Z,17.50
2023-05-08T03:22:37.375Z,17.50
2023-05-08T03:25:06.427Z,17.50
2023-05-08T03:27:34.458Z,17.50
2023-05-08T03:30:02.599Z,17.50
2023-05-08T03:32:31.683Z,17.50
2023-05-08T03:35:00.186Z,17.50
2023-05-08T03:37:28.498Z,17.50
2023-05-08T03:39:56.457Z,17.50
2023-05-08T03:42:27.394Z,17.50
2023-05-08T03:44:54.630Z,17.50
2023-05-08T03:47:22.468Z,17.50
2023-05-08T03:49:50.350Z,17.50
2023-05-08T03:52:17.270Z,17.50
2023-05-08T03:54:44.371Z,17.50
2023-05-08T03:57:11.257Z,17.50
2023-05-08T04:00:09.931Z,17.50
2023-05-08T04:02:57.746Z,17.50
2023-05-08T04:05:47.125Z,17.40
2023-05-08T04:08:23.133Z,17.40
2023-05-08T04:10:59.117Z,17.40
2023-05-08T04:13:32.626Z,17.40
2023-05-08T04:16:19.191Z,17.40
2023-05-08T04:18:48.105Z,17.40
2023-05-08T04:21:20.244Z,17.40
2023-05-08T04:23:51.056Z,17.40
2023-05-08T04:26:18.968Z,17.40
2023-05-08T04:28:49.497Z,17.40
2023-05-08T04:31:17.072Z,17.40
2023-05-08T04:33:47.423Z,17.40
2023-05-08T04:36:14.670Z,17.40
2023-05-08T04:38:41.632Z,17.40
2023-05-08T04:41:08.715Z,17.30
2023-05-08T04:43:36.575Z,17.30
2023-05-08T04:46:06.182Z,17.40
2023-05-08T04:48:33.701Z,17.40
2023-05-08T04:51:01.107Z,17.40
2023-05-08T04:53:27.843Z,17.40
2023-05-08T04:55:54.654Z,17.40
2023-05-08T04:58:21.462Z,17.40
2023-05-08T05:00:49.037Z,17.40
2023-05-08T05:03:15.994Z,17.30
2023-05-08T05:05:42.831Z,17.40
2023-05-08T05:08:09.596Z,17.40
2023-05-08T05:10:38.086Z,17.40
2023-05-08T05:13:04.881Z,17.40
2023-05-08T05:15:31.636Z,17.40
2023-05-08T05:17:58.552Z,17.40
2023-05-08T05:20:25.377Z,17.40
2023-05-08T05:22:52.162Z,17.40
2023-05-08T05:25:19.054Z,17.40
2023-05-08T05:27:45.820Z,17.40
2023-05-08T05:30:13.095Z,17.40
2023-05-08T05:32:40.104Z,17.40
2023-05-08T05:35:07.458Z,17.40
2023-05-08T05:37:34.266Z,17.40
2023-05-08T05:40:01.108Z,17.40
2023-05-08T05:42:27.890Z,17.40
2023-05-08T05:44:56.672Z,17.40
2023-05-08T05:47:23.647Z,17.40
2023-05-08T05:49:50.527Z,17.30
2023-05-08T05:52:17.426Z,17.30
2023-05-08T05:54:44.281Z,17.30
2023-05-08T05:57:11.049Z,17.40
2023-05-08T05:59:38.459Z,17.30
2023-05-08T06:02:05.388Z,17.40
2023-05-08T06:04:32.370Z,17.40
2023-05-08T06:06:59.314Z,17.40
2023-05-08T06:09:26.191Z,17.40
2023-05-08T06:11:52.946Z,17.40
2023-05-08T06:14:20.369Z,17.40
2023-05-08T06:16:47.264Z,17.40
2023-05-08T06:19:14.021Z,17.40
2023-05-08T06:21:41.002Z,17.40
2023-05-08T06:24:08.087Z,17.40
2023-05-08T06:26:34.941Z,17.40
2023-05-08T06:29:01.906Z,17.40
2023-05-08T06:31:28.802Z,17.40
2023-05-08T06:33:55.819Z,17.40
2023-05-08T06:36:22.643Z,17.40
2023-05-08T06:38:49.439Z,17.40
2023-05-08T06:41:16.742Z,17.50
2023-05-08T06:43:43.496Z,17.50
2023-05-08T06:46:10.252Z,17.50
2023-05-08T06:48:37.008Z,17.50
2023-05-08T06:51:04.550Z,17.50
2023-05-08T06:53:31.570Z,17.50
2023-05-08T06:55:58.864Z,17.50
2023-05-08T06:58:25.717Z,17.50
2023-05-08T07:00:52.578Z,17.50
2023-05-08T07:03:19.302Z,17.60
2023-05-08T07:05:45.961Z,17.60
2023-05-08T07:08:12.711Z,17.60
2023-05-08T07:10:39.590Z,17.60
2023-05-08T07:13:06.685Z,17.60
2023-05-08T07:15:33.617Z,17.60
2023-05-08T07:18:00.899Z,17.60
2023-05-08T07:20:28.083Z,17.60
2023-05-08T07:22:54.889Z,17.60
2023-05-08T07:25:21.649Z,17.60
2023-05-08T07:27:48.463Z,17.60
2023-05-08T07:30:15.484Z,17.60
2023-05-08T07:32:42.351Z,17.70
2023-05-08T07:35:11.492Z,17.60
2023-05-08T07:37:39.580Z,17.60
2023-05-08T07:40:07.114Z,17.70
2023-05-08T07:42:44.136Z,17.70
2023-05-08T07:45:13.153Z,17.70
2023-05-08T07:47:52.838Z,17.70
2023-05-08T07:50:20.383Z,17.80
2023-05-08T07:52:49.744Z,17.70
2023-05-08T07:55:17.269Z,17.80
2023-05-08T07:57:44.478Z,17.80
2023-05-08T08:00:13.953Z,17.80
2023-05-08T08:02:41.803Z,17.50
2023-05-08T08:05:09.160Z,17.80
2023-05-08T08:07:36.119Z,17.80
2023-05-08T08:10:04.522Z,17.90
2023-05-08T08:12:31.987Z,17.90
2023-05-08T08:14:58.800Z,17.90
2023-05-08T08:17:28.332Z,18.00
2023-05-08T08:19:55.642Z,18.00
2023-05-08T08:22:22.514Z,18.00
2023-05-08T08:24:49.330Z,18.00
2023-05-08T08:27:16.294Z,18.00
2023-05-08T08:29:43.180Z,18.00
2023-05-08T08:32:10.036Z,18.00
2023-05-08T08:34:36.776Z,18.10
2023-05-08T08:37:06.701Z,18.00
2023-05-08T08:39:36.857Z,18.10
2023-05-08T08:42:04.153Z,18.10
2023-05-08T08:44:31.013Z,18.00
2023-05-08T08:47:00.513Z,18.00
2023-05-08T08:49:36.046Z,18.20
2023-05-08T08:52:11.488Z,18.00
2023-05-08T08:54:41.365Z,18.00
2023-05-08T08:57:09.687Z,18.00
2023-05-08T08:59:39.271Z,18.00
2023-05-08T09:02:17.719Z,18.00
2023-05-08T09:04:44.833Z,18.10
2023-05-08T09:07:12.334Z,18.10
2023-05-08T09:09:44.577Z,18.00
2023-05-08T09:12:13.680Z,18.10
2023-05-08T09:14:40.615Z,18.00
2023-05-08T09:17:07.768Z,18.00
2023-05-08T09:19:35.418Z,18.10
2023-05-08T09:22:04.253Z,18.10
2023-05-08T09:25:09.978Z,18.10
2023-05-08T09:27:36.852Z,18.20
2023-05-08T09:30:08.474Z,18.20
2023-05-08T09:32:37.915Z,18.20
2023-05-08T09:35:06.356Z,18.20
2023-05-08T09:37:33.858Z,18.20
2023-05-08T09:40:21.154Z,18.20
2023-05-08T09:42:49.585Z,18.20
2023-05-08T09:45:31.355Z,18.20
2023-05-08T09:47:58.424Z,18.20
2023-05-08T09:50:25.742Z,18.20
2023-05-08T09:52:52.907Z,18.30
2023-05-08T09:55:20.053Z,18.30
2023-05-08T09:57:58.031Z,18.30
2023-05-08T10:00:29.401Z,18.40
2023-05-08T10:02:56.184Z,18.40
2023-05-08T10:05:24.707Z,18.40
2023-05-08T10:07:51.605Z,18.40
2023-05-08T10:10:28.786Z,18.40
2023-05-08T10:12:56.915Z,18.40
2023-05-08T10:15:25.681Z,18.50
2023-05-08T10:18:06.033Z,18.60
2023-05-08T10:20:40.661Z,18.60
2023-05-08T10:23:11.509Z,18.60
2023-05-08T10:25:55.699Z,18.60
2023-05-08T10:28:51.101Z,18.60
2023-05-08T10:31:18.694Z,18.60
2023-05-08T10:33:47.563Z,18.60
2023-05-08T10:36:14.937Z,18.60
2023-05-08T10:38:43.269Z,18.60
2023-05-08T10:41:11.308Z,18.60
2023-05-08T10:43:42.691Z,18.60
2023-05-08T10:46:22.020Z,18.70
2023-05-08T10:48:58.139Z,18.70
2023-05-08T10:51:57.723Z,18.80
2023-05-08T10:54:42.661Z,18.80
2023-05-08T10:57:12.851Z,18.80
2023-05-08T10:59:46.310Z,18.80
2023-05-08T11:02:14.985Z,18.80
2023-05-08T11:04:42.190Z,18.80
2023-05-08T11:07:09.119Z,18.80
2023-05-08T11:09:54.171Z,18.80
2023-05-08T11:12:25.577Z,18.80
2023-05-08T11:15:06.917Z,18.80
2023-05-08T11:17:34.213Z,18.80
2023-05-08T11:20:07.092Z,18.80
2023-05-08T11:22:34.975Z,18.80
2023-05-08T11:25:10.306Z,18.80
2023-05-08T11:27:49.314Z,18.90
2023-05-08T11:30:24.977Z,18.90
2023-05-08T11:33:04.052Z,19.00
2023-05-08T11:35:44.910Z,19.10
2023-05-08T11:38:16.344Z,19.20
2023-05-08T11:40:47.487Z,19.30
2023-05-08T11:43:32.864Z,19.40
2023-05-08T11:46:04.764Z,19.40
2023-05-08T11:48:35.821Z,19.50
2023-05-08T11:51:04.093Z,19.70
2023-05-08T11:53:32.162Z,19.80
2023-05-08T11:56:01.873Z,19.80
2023-05-08T11:58:28.834Z,19.90
2023-05-08T12:00:56.002Z,20.00
2023-05-08T12:03:25.553Z,20.10
2023-05-08T12:05:56.708Z,20.20
2023-05-08T12:08:23.833Z,20.20
2023-05-08T12:10:52.264Z,20.20
2023-05-08T12:13:29.479Z,20.20
2023-05-08T12:16:00.628Z,20.30
2023-05-08T12:18:29.405Z,20.50
2023-05-08T12:21:01.089Z,20.60
2023-05-08T12:23:31.297Z,20.80
2023-05-08T12:26:01.597Z,21.10
2023-05-08T12:28:28.966Z,21.40
2023-05-08T12:30:56.228Z,21.50
2023-05-08T12:33:23.959Z,21.50
2023-05-08T12:35:50.933Z,21.40
2023-05-08T12:38:17.784Z,21.50
2023-05-08T12:40:46.773Z,21.60
2023-05-08T12:43:13.516Z,21.80
2023-05-08T12:45:41.915Z,21.90
2023-05-08T12:48:11.388Z,22.10
2023-05-08T12:50:43.404Z,22.30
2023-05-08T12:53:16.494Z,22.30
2023-05-08T12:55:54.301Z,22.30
2023-05-08T12:58:25.844Z,22.50
2023-05-08T13:00:54.101Z,22.70
2023-05-08T13:03:26.485Z,22.80
2023-05-08T13:05:56.040Z,23.00
2023-05-08T13:08:39.086Z,23.00
2023-05-08T13:11:06.828Z,23.00
2023-05-08T13:13:35.368Z,22.90
2023-05-08T13:16:07.563Z,23.00
2023-05-08T13:18:36.902Z,22.90
2023-05-08T13:21:03.946Z,22.70
2023-05-08T13:23:30.664Z,22.50
2023-05-08T13:25:57.518Z,22.30
2023-05-08T13:28:24.401Z,22.10
2023-05-08T13:30:51.199Z,22.10
2023-05-08T13:33:18.017Z,22.00
2023-05-08T13:35:44.840Z,21.80
2023-05-08T13:38:11.605Z,21.70
2023-05-08T13:40:38.382Z,21.50
2023-05-08T13:43:05.175Z,21.40
2023-05-08T13:45:33.038Z,21.20
2023-05-08T13:48:00.230Z,21.10
2023-05-08T13:50:27.156Z,21.00
2023-05-08T13:52:55.127Z,20.90
2023-05-08T13:55:23.330Z,20.80
2023-05-08T13:57:50.609Z,20.70
2023-05-08T14:00:18.172Z,20.70
2023-05-08T14:02:45.348Z,20.70
2023-05-08T14:05:12.545Z,20.60
2023-05-08T14:07:39.765Z,20.70
2023-05-08T14:10:06.903Z,20.60
2023-05-08T14:12:36.759Z,20.50
2023-05-08T14:15:07.087Z,20.50
2023-05-08T14:17:33.918Z,20.40
2023-05-08T14:20:00.798Z,20.40
2023-05-08T14:22:27.725Z,20.40
2023-05-08T14:24:54.596Z,20.40
2023-05-08T14:27:21.519Z,20.30
2023-05-08T14:29:48.517Z,20.30
2023-05-08T14:32:15.325Z,20.30
2023-05-08T14:34:42.192Z,20.30
2023-05-08T14:37:08.925Z,20.30
2023-05-08T14:39:35.744Z,20.30
2023-05-08T14:42:20.766Z,20.30
2023-05-08T14:44:49.470Z,20.30
2023-05-08T14:47:16.287Z,20.30
2023-05-08T14:49:43.146Z,20.30
2023-05-08T14:52:09.953Z,20.30
2023-05-08T14:54:36.915Z,20.20
2023-05-08T14:57:03.803Z,20.20
2023-05-08T14:59:30.561Z,20.20
2023-05-08T15:01:57.334Z,20.10
2023-05-08T15:04:24.198Z,20.10
2023-05-08T15:06:51.012Z,20.10
2023-05-08T15:09:18.032Z,20.10
2023-05-08T15:11:44.922Z,20.00
2023-05-08T15:14:11.722Z,20.00
2023-05-08T15:16:38.667Z,20.00
2023-05-08T15:19:05.641Z,20.00
2023-05-08T15:21:32.448Z,20.00
2023-05-08T15:23:59.204Z,20.00
2023-05-08T15:26:26.039Z,20.10
2023-05-08T15:28:52.846Z,20.00
2023-05-08T15:31:19.636Z,20.10
2023-05-08T15:33:47.968Z,20.10
2023-05-08T15:36:15.303Z,20.10
2023-05-08T15:38:42.556Z,20.10
2023-05-08T15:41:15.328Z,20.10
2023-05-08T15:43:43.238Z,20.10
2023-05-08T15:46:10.273Z,20.20
2023-05-08T15:48:37.101Z,20.20
2023-05-08T15:51:03.975Z,20.20
2023-05-08T15:53:30.744Z,20.40
2023-05-08T15:55:57.637Z,20.30
2023-05-08T15:58:24.783Z,20.40
2023-05-08T16:00:51.896Z,20.40
2023-05-08T16:03:19.299Z,20.40
2023-05-08T16:05:46.306Z,20.40
2023-05-08T16:08:13.750Z,20.40
2023-05-08T16:10:41.806Z,20.40
2023-05-08T16:13:08.937Z,20.40
2023-05-08T16:15:35.900Z,20.40
2023-05-08T16:18:03.161Z,20.40
2023-05-08T16:20:30.322Z,20.40
2023-05-08T16:22:57.857Z,20.40
2023-05-08T16:25:25.649Z,20.30
2023-05-08T16:27:52.597Z,20.40
2023-05-08T16:30:19.550Z,20.40
2023-05-08T16:32:46.562Z,20.30
2023-05-08T16:35:13.987Z,20.30
2023-05-08T16:37:40.968Z,20.30
2023-05-08T16:40:09.342Z,20.50
2023-05-08T16:42:37.006Z,20.30
2023-05-08T16:45:05.062Z,20.20
2023-05-08T16:47:32.541Z,20.20
2023-05-08T16:49:59.649Z,20.20
2023-05-08T16:52:26.507Z,20.10
2023-05-08T16:54:53.682Z,20.10
2023-05-08T16:57:20.505Z,20.10
2023-05-08T16:59:47.371Z,20.10
2023-05-08T17:02:18.762Z,20.00
2023-05-08T17:04:49.393Z,20.10
2023-05-08T17:07:16.773Z,20.10
2023-05-08T17:09:43.796Z,20.10
2023-05-08T17:12:10.735Z,20.00
2023-05-08T17:14:39.361Z,20.00
2023-05-08T17:17:06.556Z,20.00
2023-05-08T17:19:33.372Z,19.90
2023-05-08T17:22:00.222Z,20.00
2023-05-08T17:24:27.255Z,19.90
2023-05-08T17:26:54.128Z,19.90
2023-05-08T17:29:20.986Z,19.90
2023-05-08T17:31:47.812Z,19.90
2023-05-08T17:34:14.693Z,19.90
2023-05-08T17:36:41.647Z,19.90
2023-05-08T17:39:08.532Z,19.90
2023-05-08T17:41:35.285Z,19.90
2023-05-08T17:44:01.962Z,19.90
2023-05-08T17:46:28.803Z,19.80
2023-05-08T17:48:55.732Z,19.90
2023-05-08T17:51:22.508Z,19.80
2023-05-08T17:53:49.390Z,19.80
2023-05-08T17:56:20.372Z,19.80
2023-05-08T17:58:47.444Z,19.80
2023-05-08T18:01:14.271Z,19.80
2023-05-08T18:03:41.705Z,19.70
2023-05-08T18:06:08.658Z,19.70
2023-05-08T18:08:35.435Z,19.70
2023-05-08T18:11:02.181Z,19.70
2023-05-08T18:13:29.032Z,19.60
2023-05-08T18:15:55.867Z,19.60
2023-05-08T18:18:22.679Z,19.60
2023-05-08T18:20:49.474Z,19.60
2023-05-08T18:23:16.258Z,19.50
2023-05-08T18:25:43.052Z,19.50
2023-05-08T18:28:09.796Z,19.50
2023-05-08T18:30:38.175Z,19.40
2023-05-08T18:33:04.984Z,19.40
2023-05-08T18:35:31.830Z,19.40
2023-05-08T18:37:58.716Z,19.40
2023-05-08T18:40:25.719Z,19.40
2023-05-08T18:42:52.540Z,19.30
2023-05-08T18:45:19.688Z,19.30
2023-05-08T18:47:46.613Z,19.30
2023-05-08T18:50:13.715Z,19.30
2023-05-08T18:52:40.921Z,19.20
2023-05-08T18:55:08.110Z,19.20
2023-05-08T18:57:35.279Z,19.20
2023-05-08T19:00:02.306Z,19.20
2023-05-08T19:02:29.540Z,19.10
2023-05-08T19:04:56.721Z,19.10
2023-05-08T19:07:23.768Z,19.10
2023-05-08T19:09:50.603Z,19.10
2023-05-08T19:12:17.445Z,19.00
2023-05-08T19:14:44.461Z,19.00
2023-05-08T19:17:11.646Z,19.00
2023-05-08T19:19:38.733Z,18.90
2023-05-08T19:22:06.496Z,18.90
2023-05-08T19:24:34.260Z,18.90
2023-05-08T19:27:01.315Z,18.90
2023-05-08T19:29:28.182Z,18.90
2023-05-08T19:31:56.599Z,18.80
2023-05-08T19:34:24.196Z,18.80
2023-05-08T19:36:51.368Z,18.80
2023-05-08T19:39:18.351Z,18.80
2023-05-08T19:41:45.337Z,18.80
2023-05-08T19:44:12.168Z,18.80
2023-05-08T19:46:39.707Z,18.70
2023-05-08T19:49:06.822Z,18.70
2023-05-08T19:51:33.725Z,18.70
2023-05-08T19:54:00.733Z,18.60
2023-05-08T19:56:27.627Z,18.60
2023-05-08T19:58:54.564Z,18.60
2023-05-08T20:01:21.584Z,18.60
2023-05-08T20:03:48.499Z,18.50
2023-05-08T20:06:15.445Z,18.50
2023-05-08T20:08:42.268Z,18.50
2023-05-08T20:11:12.342Z,18.50
2023-05-08T20:13:39.431Z,18.50
2023-05-08T20:16:06.591Z,18.50
2023-05-08T20:18:35.262Z,18.40
2023-05-08T20:21:02.024Z,18.40
2023-05-08T20:23:28.937Z,18.40
2023-05-08T20:25:55.754Z,18.40
2023-05-08T20:28:25.171Z,18.40
2023-05-08T20:30:52.595Z,18.40
2023-05-08T20:33:20.663Z,18.30
2023-05-08T20:35:49.223Z,18.30
2023-05-08T20:38:16.105Z,18.30
2023-05-08T20:40:43.011Z,18.30
2023-05-08T20:43:10.248Z,18.30
2023-05-08T20:45:37.724Z,18.20
2023-05-08T20:48:05.401Z,18.20
2023-05-08T20:50:32.283Z,18.20
2023-05-08T20:52:59.078Z,18.20
2023-05-08T20:55:25.887Z,18.20
2023-05-08T20:57:52.701Z,18.20
2023-05-08T21:00:19.760Z,18.20
2023-05-08T21:02:46.734Z,18.10
2023-05-08T21:05:13.878Z,18.10
2023-05-08T21:07:42.400Z,18.10
2023-05-08T21:10:09.637Z,18.10
2023-05-08T21:12:36.579Z,18.10
2023-05-08T21:15:03.580Z,18.10
2023-05-08T21:17:30.501Z,18.10
2023-05-08T21:19:57.373Z,18.10
2023-05-08T21:22:24.187Z,18.00
2023-05-08T21:24:50.943Z,18.00
2023-05-08T21:27:17.800Z,17.90
2023-05-08T21:29:44.528Z,17.90
2023-05-08T21:32:11.295Z,17.90
2023-05-08T21:34:38.135Z,17.80
2023-05-08T21:37:04.960Z,17.80
2023-05-08T21:39:31.720Z,17.80
2023-05-08T21:41:58.449Z,17.80
2023-05-08T21:44:25.270Z,17.80
2023-05-08T21:46:52.037Z,17.80
2023-05-08T21:49:18.734Z,17.70
2023-05-08T21:51:45.877Z,17.70
2023-05-08T21:54:12.839Z,17.70
2023-05-08T21:56:39.857Z,17.70
2023-05-08T21:59:07.416Z,17.70
2023-05-08T22:01:34.211Z,17.70
2023-05-08T22:04:01.254Z,17.60
2023-05-08T22:06:28.886Z,17.70
2023-05-08T22:08:55.588Z,17.60
2023-05-08T22:11:22.435Z,17.60
2023-05-08T22:13:49.209Z,17.60
2023-05-08T22:16:15.998Z,17.60
2023-05-08T22:18:42.754Z,17.60
2023-05-08T22:21:09.670Z,17.60
2023-05-08T22:23:36.477Z,17.60
2023-05-08T22:26:03.504Z,17.60
2023-05-08T22:28:30.311Z,17.60
2023-05-08T22:30:57.055Z,17.60
2023-05-08T22:33:23.841Z,17.60
2023-05-08T22:35:50.670Z,17.60
2023-05-08T22:38:17.478Z,17.60
2023-05-08T22:40:44.320Z,17.60
2023-05-08T22:43:11.052Z,17.60
2023-05-08T22:45:37.908Z,17.60
2023-05-08T22:48:05.031Z,17.60
2023-05-08T22:50:31.832Z,17.60
2023-05-08T22:52:58.638Z,17.60
2023-05-08T22:55:25.486Z,17.60
2023-05-08T22:57:52.314Z,17.60
2023-05-08T23:00:19.331Z,17.60
2023-05-08T23:02:46.225Z,17.60
2023-05-08T23:05:13.241Z,17.60
2023-05-08T23:07:40.712Z,17.60
2023-05-08T23:10:07.823Z,17.60
2023-05-08T23:12:34.737Z,17.60
2023-05-08T23:15:01.442Z,17.60
2023-05-08T23:17:28.225Z,17.60
2023-05-08T23:19:55.115Z,17.60
2023-05-08T23:22:21.898Z,17.50
2023-05-08T23:24:48.671Z,17.50
2023-05-08T23:27:15.459Z,17.50
2023-05-08T23:29:42.147Z,17.50
2023-05-08T23:32:08.993Z,17.50
2023-05-08T23:34:35.761Z,17.50
2023-05-08T23:37:02.448Z,17.50
2023-05-08T23:39:29.602Z,17.50
2023-05-08T23:41:56.425Z,17.50
2023-05-08T23:44:23.280Z,17.50
2023-05-08T23:46:50.079Z,17.40
2023-05-08T23:49:16.931Z,17.50
2023-05-08T23:51:43.653Z,17.50
2023-05-08T23:54:10.619Z,17.50
2023-05-08T23:56:37.535Z,17.40
2023-05-08T23:59:04.216Z,17.50
